createdAt,value
2023-03-21T00:02:12.914Z,39.90
2023-03-21T00:07:30.983Z,36.60
2023-03-21T00:10:12.497Z,40.57
2023-03-21T00:12:43.380Z,36.33
2023-03-21T00:15:13.908Z,38.30
2023-03-21T00:17:44.852Z,36.53
2023-03-21T00:20:15.422Z,41.33
2023-03-21T00:22:44.419Z,34.63
2023-03-21T00:25:13.168Z,31.17
2023-03-21T00:27:57.240Z,36.30
2023-03-21T00:30:30.914Z,31.97
2023-03-21T00:33:05.874Z,33.33
2023-03-21T00:38:31.245Z,29.47
2023-03-21T00:41:04.739Z,29.53
2023-03-21T00:43:33.720Z,25.37
2023-03-21T00:46:03.419Z,27.07
2023-03-21T00:48:33.994Z,26.07
2023-03-21T00:51:03.300Z,25.07
2023-03-21T00:53:32.864Z,25.50
2023-03-21T00:56:01.657Z,23.70
2023-03-21T00:58:31.348Z,23.70
2023-03-21T01:01:02.710Z,23.53
2023-03-21T01:03:42.536Z,23.17
2023-03-21T01:06:14.908Z,26.20
2023-03-21T01:08:52.301Z,22.77
2023-03-21T01:11:23.947Z,26.90
2023-03-21T01:13:57.792Z,22.97
2023-03-21T01:16:30.980Z,25.50
2023-03-21T01:19:04.745Z,25.40
2023-03-21T01:21:34.356Z,25.97
2023-03-21T01:24:03.534Z,23.17
2023-03-21T01:26:32.481Z,28.60
2023-03-21T01:29:01.314Z,25.03
2023-03-21T01:31:30.254Z,26.53
2023-03-21T01:34:00.570Z,28.77
2023-03-21T01:36:29.421Z,24.23
2023-03-21T01:39:03.595Z,25.17
2023-03-21T01:41:43.129Z,25.53
2023-03-21T01:44:28.260Z,21.77
2023-03-21T01:47:11.101Z,26.27
2023-03-21T01:50:02.246Z,21.43
2023-03-21T01:52:41.893Z,20.10
2023-03-21T01:55:18.012Z,18.43
2023-03-21T01:58:10.103Z,20.87
2023-03-21T02:01:04.825Z,14.63
2023-03-21T02:03:50.225Z,19.33
2023-03-21T02:06:45.064Z,17.90
2023-03-21T02:09:28.862Z,14.27
2023-03-21T02:11:58.361Z,17.17
2023-03-21T02:14:33.124Z,14.73
2023-03-21T02:17:19.862Z,14.37
2023-03-21T02:20:26.589Z,15.70
2023-03-21T02:23:24.391Z,15.17
2023-03-21T02:26:15.555Z,14.87
2023-03-21T02:28:48.462Z,15.83
2023-03-21T02:31:29.606Z,18.33
2023-03-21T02:34:26.093Z,20.20
2023-03-21T02:37:07.635Z,18.43
2023-03-21T02:39:47.232Z,15.30
2023-03-21T02:42:21.546Z,17.70
2023-03-21T02:44:59.910Z,14.60
2023-03-21T02:47:34.699Z,19.00
2023-03-21T02:50:13.524Z,16.40
2023-03-21T02:52:47.631Z,15.20
2023-03-21T02:55:21.330Z,15.13
2023-03-21T02:58:11.735Z,18.63
2023-03-21T03:00:46.185Z,18.17
2023-03-21T03:03:33.477Z,15.40
2023-03-21T03:06:12.099Z,17.67
2023-03-21T03:09:02.264Z,15.97
2023-03-21T03:11:34.689Z,20.83
2023-03-21T03:14:53.063Z,20.03
2023-03-21T03:17:34.350Z,19.30
2023-03-21T03:20:17.520Z,16.43
2023-03-21T03:22:59.971Z,15.43
2023-03-21T03:25:42.896Z,16.37
2023-03-21T03:28:18.392Z,17.67
2023-03-21T03:31:07.038Z,15.47
2023-03-21T03:33:45.031Z,15.03
2023-03-21T03:36:33.517Z,16.27
2023-03-21T03:39:15.485Z,18.23
2023-03-21T03:42:10.035Z,14.60
2023-03-21T03:44:45.506Z,17.77
2023-03-21T03:47:32.242Z,19.87
2023-03-21T03:50:10.484Z,17.40
2023-03-21T03:52:55.288Z,20.13
2023-03-21T03:55:34.429Z,18.67
2023-03-21T03:58:21.723Z,20.30
2023-03-21T04:00:52.989Z,22.20
2023-03-21T04:03:23.113Z,22.30
2023-03-21T04:05:52.390Z,24.77
2023-03-21T04:08:23.390Z,19.00
2023-03-21T04:10:55.884Z,17.07
2023-03-21T04:13:27.470Z,15.10
2023-03-21T04:16:04.839Z,16.03
2023-03-21T04:18:33.883Z,20.33
2023-03-21T04:21:03.658Z,19.50
2023-03-21T04:23:33.341Z,18.70
2023-03-21T04:26:02.276Z,17.80
2023-03-21T04:28:39.846Z,19.17
2023-03-21T04:31:26.423Z,18.37
2023-03-21T04:34:09.819Z,20.90
2023-03-21T04:36:43.058Z,18.90
2023-03-21T04:39:13.652Z,19.90
2023-03-21T04:41:46.314Z,19.13
2023-03-21T04:44:17.568Z,17.93
2023-03-21T04:46:46.956Z,19.83
2023-03-21T04:49:16.612Z,17.87
2023-03-21T04:51:46.372Z,20.07
2023-03-21T04:54:21.131Z,22.30
2023-03-21T04:56:52.079Z,20.90
2023-03-21T04:59:22.432Z,19.23
2023-03-21T05:01:52.466Z,17.77
2023-03-21T05:04:21.862Z,17.07
2023-03-21T05:06:51.655Z,18.30
2023-03-21T05:09:22.202Z,16.43
2023-03-21T05:11:51.832Z,19.27
2023-03-21T05:14:24.260Z,19.93
2023-03-21T05:16:56.260Z,18.93
2023-03-21T05:19:35.042Z,19.57
2023-03-21T05:22:07.045Z,19.27
2023-03-21T05:24:39.333Z,20.80
2023-03-21T05:27:10.796Z,20.23
2023-03-21T05:29:48.344Z,17.40
2023-03-21T05:32:18.178Z,24.67
2023-03-21T05:34:47.127Z,23.27
2023-03-21T05:37:16.197Z,20.57
2023-03-21T05:39:50.984Z,18.87
2023-03-21T05:42:26.527Z,22.07
2023-03-21T05:44:57.462Z,23.93
2023-03-21T05:47:31.339Z,21.60
2023-03-21T05:50:02.130Z,21.63
2023-03-21T05:52:32.551Z,22.47
2023-03-21T05:55:03.492Z,25.53
2023-03-21T05:57:35.175Z,26.13
2023-03-21T06:00:12.144Z,22.83
2023-03-21T06:02:55.558Z,19.27
2023-03-21T06:05:56.057Z,22.17
2023-03-21T06:08:28.755Z,20.17
2023-03-21T06:10:57.645Z,24.70
2023-03-21T06:13:27.151Z,24.40
2023-03-21T06:15:58.029Z,21.37
2023-03-21T06:18:28.126Z,23.83
2023-03-21T06:21:05.387Z,28.87
2023-03-21T06:23:34.170Z,27.10
2023-03-21T06:26:03.308Z,22.27
2023-03-21T06:28:32.586Z,24.63
2023-03-21T06:31:03.072Z,21.63
2023-03-21T06:33:33.435Z,23.43
2023-03-21T06:36:02.334Z,23.43
2023-03-21T06:38:31.754Z,24.50
2023-03-21T06:41:04.687Z,22.13
2023-03-21T06:43:38.248Z,22.83
2023-03-21T06:46:08.600Z,19.63
2023-03-21T06:48:39.350Z,22.63
2023-03-21T06:51:08.805Z,20.40
2023-03-21T06:53:41.564Z,28.07
2023-03-21T06:56:22.730Z,26.20
2023-03-21T06:58:51.663Z,24.20
2023-03-21T07:01:40.819Z,24.10
2023-03-21T07:04:10.315Z,18.37
2023-03-21T07:06:39.695Z,21.33
2023-03-21T07:09:08.835Z,24.40
2023-03-21T07:11:38.382Z,18.93
2023-03-21T07:14:08.031Z,21.63
2023-03-21T07:16:37.016Z,24.70
2023-03-21T07:19:07.319Z,22.77
2023-03-21T07:21:36.171Z,22.20
2023-03-21T07:24:05.758Z,22.07
2023-03-21T07:26:34.710Z,24.10
2023-03-21T07:29:05.408Z,19.63
2023-03-21T07:31:34.774Z,24.77
2023-03-21T07:34:04.310Z,25.83
2023-03-21T07:36:36.962Z,21.90
2023-03-21T07:39:06.373Z,19.43
2023-03-21T07:41:35.328Z,20.73
2023-03-21T07:44:24.662Z,18.40
2023-03-21T07:47:03.833Z,19.17
2023-03-21T07:49:32.967Z,20.07
2023-03-21T07:52:04.747Z,23.50
2023-03-21T07:54:34.004Z,19.23
2023-03-21T07:57:02.809Z,21.87
2023-03-21T07:59:31.789Z,22.57
2023-03-21T08:02:00.640Z,21.20
2023-03-21T08:04:30.123Z,22.07
2023-03-21T08:06:58.897Z,20.43
2023-03-21T08:09:30.731Z,22.67
2023-03-21T08:11:59.994Z,23.17
2023-03-21T08:14:28.960Z,27.10
2023-03-21T08:16:57.981Z,19.37
2023-03-21T08:19:27.136Z,22.63
2023-03-21T08:21:56.039Z,20.40
2023-03-21T08:24:24.773Z,19.23
2023-03-21T08:26:54.926Z,20.07
2023-03-21T08:29:25.177Z,18.17
2023-03-21T08:31:54.099Z,19.97
2023-03-21T08:34:23.178Z,21.47
2023-03-21T08:36:52.040Z,18.50
2023-03-21T08:39:21.947Z,22.83
2023-03-21T08:41:50.794Z,17.50
2023-03-21T08:44:22.125Z,19.83
2023-03-21T08:46:50.942Z,20.17
2023-03-21T08:49:19.737Z,19.17
2023-03-21T08:51:48.637Z,19.70
2023-03-21T08:54:21.800Z,19.57
2023-03-21T08:56:50.698Z,17.83
2023-03-21T08:59:21.913Z,18.80
2023-03-21T09:01:51.012Z,20.43
2023-03-21T09:04:20.588Z,20.33
2023-03-21T09:06:50.253Z,16.27
2023-03-21T09:09:19.014Z,14.17
2023-03-21T09:11:47.777Z,17.50
2023-03-21T09:14:18.360Z,16.70
2023-03-21T09:16:50.011Z,17.57
2023-03-21T09:19:19.050Z,17.97
2023-03-21T09:21:47.908Z,18.20
2023-03-21T09:24:18.169Z,16.70
2023-03-21T09:26:50.222Z,16.17
2023-03-21T09:29:20.928Z,14.77
2023-03-21T09:31:53.227Z,15.97
2023-03-21T09:34:22.387Z,16.97
2023-03-21T09:36:56.579Z,16.67
2023-03-21T09:39:27.197Z,15.53
2023-03-21T09:42:19.727Z,17.77
2023-03-21T09:44:58.355Z,17.10
2023-03-21T09:47:34.877Z,17.73
2023-03-21T09:50:14.932Z,17.17
2023-03-21T09:52:49.683Z,15.53
2023-03-21T09:55:21.408Z,16.90
2023-03-21T09:57:55.137Z,20.23
2023-03-21T10:00:30.003Z,18.23
2023-03-21T10:03:06.834Z,18.00
2023-03-21T10:05:40.500Z,17.50
2023-03-21T10:08:14.625Z,17.33
2023-03-21T10:10:47.990Z,16.47
2023-03-21T10:13:21.920Z,17.60
2023-03-21T10:15:50.960Z,17.67
2023-03-21T10:18:25.430Z,17.83
2023-03-21T10:20:54.861Z,14.97
2023-03-21T10:23:29.186Z,15.27
2023-03-21T10:26:01.012Z,17.63
2023-03-21T10:28:42.347Z,16.80
2023-03-21T10:31:22.436Z,17.50
2023-03-21T10:33:53.408Z,16.93
2023-03-21T10:36:25.851Z,23.23
2023-03-21T10:38:56.712Z,15.17
2023-03-21T10:41:25.593Z,19.03
2023-03-21T10:44:07.464Z,16.17
2023-03-21T10:46:36.665Z,18.00
2023-03-21T10:49:08.963Z,15.87
2023-03-21T10:51:39.323Z,17.83
2023-03-21T10:54:13.118Z,17.17
2023-03-21T10:56:47.170Z,18.53
2023-03-21T10:59:22.790Z,21.50
2023-03-21T11:01:55.357Z,18.07
2023-03-21T11:04:27.907Z,15.97
2023-03-21T11:06:59.677Z,16.60
2023-03-21T11:09:46.157Z,17.53
2023-03-21T11:12:17.627Z,17.07
2023-03-21T11:14:47.860Z,17.10
2023-03-21T11:17:25.454Z,15.33
2023-03-21T11:19:59.786Z,22.20
2023-03-21T11:22:31.978Z,16.83
2023-03-21T11:25:02.272Z,14.63
2023-03-21T11:27:32.701Z,16.10
2023-03-21T11:30:05.253Z,16.10
2023-03-21T11:32:36.364Z,15.90
2023-03-21T11:35:14.364Z,17.73
2023-03-21T11:37:46.468Z,14.00
2023-03-21T11:40:23.573Z,15.63
2023-03-21T11:42:54.055Z,13.57
2023-03-21T11:45:24.902Z,16.13
2023-03-21T11:47:56.725Z,15.93
2023-03-21T11:50:34.004Z,16.07
2023-03-21T11:53:26.773Z,17.80
2023-03-21T11:56:13.499Z,16.50
2023-03-21T11:59:10.606Z,14.13
2023-03-21T12:01:49.566Z,14.30
2023-03-21T12:04:27.133Z,14.77
2023-03-21T12:07:03.886Z,14.83
2023-03-21T12:09:39.288Z,14.33
2023-03-21T12:12:26.970Z,15.13
2023-03-21T12:15:10.559Z,14.30
2023-03-21T12:17:50.067Z,14.33
2023-03-21T12:20:30.782Z,15.10
2023-03-21T12:23:26.869Z,15.03
2023-03-21T12:26:02.049Z,15.83
2023-03-21T12:28:39.229Z,16.50
2023-03-21T12:31:18.059Z,15.73
2023-03-21T12:34:07.243Z,13.20
2023-03-21T12:36:57.163Z,17.17
2023-03-21T12:39:31.457Z,16.30
2023-03-21T12:42:25.390Z,13.97
2023-03-21T12:45:06.056Z,14.00
2023-03-21T12:47:36.784Z,17.23
2023-03-21T12:50:13.984Z,15.07
2023-03-21T12:52:45.653Z,15.13
2023-03-21T12:55:21.634Z,16.33
2023-03-21T12:57:57.777Z,13.90
2023-03-21T13:00:33.552Z,14.13
2023-03-21T13:03:05.389Z,15.37
2023-03-21T13:05:37.988Z,12.70
2023-03-21T13:08:13.050Z,12.63
2023-03-21T13:10:46.187Z,14.53
2023-03-21T13:13:23.900Z,14.57
2023-03-21T13:16:10.490Z,14.23
2023-03-21T13:19:02.501Z,13.07
2023-03-21T13:21:44.602Z,14.07
2023-03-21T13:24:25.823Z,13.07
2023-03-21T13:27:02.566Z,14.27
2023-03-21T13:29:34.606Z,13.33
2023-03-21T13:32:16.492Z,12.93
2023-03-21T13:34:45.562Z,14.83
2023-03-21T13:37:17.912Z,13.80
2023-03-21T13:39:48.276Z,13.97
2023-03-21T13:42:25.400Z,13.10
2023-03-21T13:44:57.763Z,14.67
2023-03-21T13:47:52.158Z,14.27
2023-03-21T13:50:36.497Z,15.27
2023-03-21T13:53:23.974Z,13.93
2023-03-21T13:56:22.062Z,14.60
2023-03-21T13:59:00.353Z,13.63
2023-03-21T14:01:42.573Z,13.07
2023-03-21T14:04:15.548Z,15.73
2023-03-21T14:06:50.085Z,14.23
2023-03-21T14:09:25.429Z,12.20
2023-03-21T14:11:58.740Z,14.17
2023-03-21T14:14:38.975Z,14.50
2023-03-21T14:17:14.258Z,16.47
2023-03-21T14:19:43.011Z,18.43
2023-03-21T14:22:14.439Z,16.90
2023-03-21T14:24:49.439Z,16.03
2023-03-21T14:27:19.099Z,17.47
2023-03-21T14:29:51.419Z,19.20
2023-03-21T14:32:24.146Z,18.50
2023-03-21T14:34:53.740Z,18.23
2023-03-21T14:37:34.970Z,37.40
2023-03-21T14:40:09.136Z,19.23
2023-03-21T14:42:39.535Z,25.30
2023-03-21T14:45:21.089Z,23.70
2023-03-21T14:47:58.387Z,27.10
2023-03-21T14:50:33.871Z,22.60
2023-03-21T14:53:02.922Z,24.77
2023-03-21T14:55:32.045Z,18.00
2023-03-21T14:58:00.870Z,20.40
2023-03-21T15:00:32.395Z,16.97
2023-03-21T15:03:03.064Z,18.80
2023-03-21T15:05:34.747Z,17.90
2023-03-21T15:08:08.270Z,23.93
2023-03-21T15:10:38.541Z,17.30
2023-03-21T15:13:16.177Z,15.87
2023-03-21T15:15:47.254Z,15.20
2023-03-21T15:18:19.496Z,16.63
2023-03-21T15:20:51.309Z,16.83
2023-03-21T15:23:29.910Z,18.30
2023-03-21T15:25:59.387Z,16.97
2023-03-21T15:28:28.299Z,16.90
2023-03-21T15:30:58.730Z,26.83
2023-03-21T15:33:27.947Z,32.93
2023-03-21T15:35:59.448Z,23.43
2023-03-21T15:38:33.594Z,22.40
2023-03-21T15:41:29.199Z,21.17
2023-03-21T15:44:06.526Z,30.17
2023-03-21T15:46:43.247Z,23.47
2023-03-21T15:49:21.161Z,20.27
2023-03-21T15:51:54.103Z,24.17
2023-03-21T15:54:25.895Z,23.03
2023-03-21T15:56:56.490Z,22.93
2023-03-21T15:59:28.613Z,21.67
2023-03-21T16:01:59.169Z,23.53
2023-03-21T16:04:28.124Z,23.40
2023-03-21T16:07:02.248Z,21.57
2023-03-21T16:09:40.835Z,27.80
2023-03-21T16:12:13.214Z,29.53
2023-03-21T16:14:43.037Z,25.17
2023-03-21T16:17:36.726Z,26.30
2023-03-21T16:20:14.484Z,21.60
2023-03-21T16:22:43.442Z,25.10
2023-03-21T16:25:12.194Z,37.43
2023-03-21T16:27:41.108Z,28.70
2023-03-21T16:30:13.136Z,29.93
2023-03-21T16:32:43.326Z,33.20
2023-03-21T16:35:12.570Z,55.07
2023-03-21T16:37:41.838Z,52.40
2023-03-21T16:40:28.715Z,36.67
2023-03-21T16:42:57.699Z,26.33
2023-03-21T16:45:28.703Z,31.63
2023-03-21T16:47:59.523Z,27.80
2023-03-21T16:50:31.616Z,23.37
2023-03-21T16:53:01.341Z,22.07
2023-03-21T16:55:32.913Z,27.53
2023-03-21T16:58:02.157Z,24.53
2023-03-21T17:00:32.244Z,29.27
2023-03-21T17:03:07.667Z,37.17
2023-03-21T17:05:36.431Z,45.00
2023-03-21T17:08:05.515Z,48.80
2023-03-21T17:10:34.808Z,53.97
2023-03-21T17:13:03.615Z,53.60
2023-03-21T17:15:32.444Z,63.37
2023-03-21T17:18:03.129Z,51.70
2023-03-21T17:20:34.059Z,66.23
2023-03-21T17:23:03.001Z,63.07
2023-03-21T17:25:31.869Z,48.07
2023-03-21T17:28:00.797Z,37.17
2023-03-21T17:30:32.043Z,33.17
2023-03-21T17:33:02.757Z,39.87
2023-03-21T17:35:31.664Z,40.70
2023-03-21T17:38:00.493Z,32.93
2023-03-21T17:40:30.994Z,32.97
2023-03-21T17:43:01.349Z,61.33
2023-03-21T17:45:30.670Z,51.03
2023-03-21T17:47:59.621Z,40.13
2023-03-21T17:50:37.241Z,39.47
2023-03-21T17:53:06.522Z,32.70
2023-03-21T17:55:36.301Z,35.80
2023-03-21T17:58:06.196Z,39.83
2023-03-21T18:00:34.939Z,61.63
2023-03-21T18:03:03.844Z,72.70
2023-03-21T18:05:34.050Z,99.50
2023-03-21T18:08:10.196Z,129.03
2023-03-21T18:10:40.710Z,138.17
2023-03-21T18:13:09.989Z,143.03
2023-03-21T18:15:44.101Z,124.90
2023-03-21T18:18:14.596Z,126.97
2023-03-21T18:20:52.281Z,112.23
2023-03-21T18:23:22.042Z,75.13
2023-03-21T18:25:52.470Z,66.13
2023-03-21T18:28:22.398Z,54.57
2023-03-21T18:33:41.788Z,51.47
2023-03-21T18:36:14.336Z,43.07
2023-03-21T18:38:43.388Z,37.20
2023-03-21T18:41:12.427Z,45.43
2023-03-21T18:44:05.104Z,46.87
2023-03-21T18:46:31.674Z,48.20
2023-03-21T18:49:20.008Z,46.63
2023-03-21T18:51:50.776Z,54.30
2023-03-21T18:54:19.645Z,58.37
2023-03-21T18:57:33.883Z,49.53
2023-03-21T18:59:40.304Z,43.87
2023-03-21T19:02:09.508Z,49.73
2023-03-21T19:04:38.471Z,65.13
2023-03-21T19:07:09.145Z,46.33
2023-03-21T19:10:01.631Z,36.37
2023-03-21T19:12:27.398Z,31.33
2023-03-21T19:14:56.741Z,35.70
2023-03-21T19:20:15.526Z,35.63
2023-03-21T19:22:46.589Z,35.83
2023-03-21T19:25:16.043Z,41.33
2023-03-21T19:27:45.203Z,45.77
2023-03-21T19:30:15.880Z,51.47
2023-03-21T19:32:45.560Z,51.30
2023-03-21T19:35:14.624Z,54.60
2023-03-21T19:37:43.372Z,48.70
2023-03-21T19:40:14.395Z,47.07
2023-03-21T19:42:43.324Z,46.63
2023-03-21T19:45:12.787Z,47.77
2023-03-21T19:47:41.576Z,50.60
2023-03-21T19:53:00.466Z,47.87
2023-03-21T19:55:31.122Z,48.20
2023-03-21T19:58:00.160Z,47.43
2023-03-21T20:00:29.067Z,44.63
2023-03-21T20:02:58.062Z,46.47
2023-03-21T20:05:27.549Z,45.40
2023-03-21T20:07:57.233Z,48.10
2023-03-21T20:10:27.671Z,44.83
2023-03-21T20:12:58.260Z,51.77
2023-03-21T20:15:29.945Z,53.37
2023-03-21T20:17:59.671Z,50.70
2023-03-21T20:20:28.444Z,47.77
2023-03-21T20:23:06.733Z,47.37
2023-03-21T20:25:39.945Z,52.00
2023-03-21T20:28:16.297Z,49.97
2023-03-21T20:30:50.841Z,53.10
2023-03-21T20:33:19.954Z,51.67
2023-03-21T20:38:39.290Z,54.50
2023-03-21T20:41:08.579Z,48.53
2023-03-21T20:46:30.982Z,50.07
2023-03-21T20:48:59.846Z,44.93
2023-03-21T20:54:17.926Z,56.20
2023-03-21T20:56:46.692Z,54.43
2023-03-21T20:59:26.141Z,56.90
2023-03-21T21:01:57.252Z,62.53
2023-03-21T21:04:44.867Z,62.23
2023-03-21T21:07:20.403Z,57.83
2023-03-21T21:09:50.077Z,54.37
2023-03-21T21:12:19.785Z,51.77
2023-03-21T21:14:50.051Z,53.47
2023-03-21T21:17:40.401Z,60.50
2023-03-21T21:20:16.496Z,55.33
2023-03-21T21:22:58.571Z,61.77
2023-03-21T21:25:29.242Z,56.87
2023-03-21T21:27:58.017Z,54.30
2023-03-21T21:30:29.318Z,63.17
2023-03-21T21:32:59.734Z,60.00
2023-03-21T21:35:28.677Z,64.70
2023-03-21T21:37:57.565Z,59.57
2023-03-21T21:40:26.422Z,56.50
2023-03-21T21:42:55.587Z,60.73
2023-03-21T21:45:24.380Z,60.43
2023-03-21T21:47:54.626Z,66.07
2023-03-21T21:50:23.543Z,65.90
2023-03-21T21:52:54.777Z,59.33
2023-03-21T21:55:24.032Z,57.10
2023-03-21T21:57:52.899Z,55.10
2023-03-21T22:00:23.080Z,57.80
2023-03-21T22:02:52.015Z,56.67
2023-03-21T22:05:22.571Z,60.80
2023-03-21T22:07:53.524Z,60.43
2023-03-21T22:10:23.986Z,58.13
2023-03-21T22:12:53.349Z,62.87
2023-03-21T22:15:24.017Z,56.70
2023-03-21T22:17:53.049Z,58.00
2023-03-21T22:20:23.463Z,58.57
2023-03-21T22:22:52.598Z,58.57
2023-03-21T22:25:21.572Z,56.27
2023-03-21T22:27:50.891Z,61.10
2023-03-21T22:30:20.013Z,56.37
2023-03-21T22:33:02.497Z,49.80
2023-03-21T22:35:38.745Z,55.57
2023-03-21T22:38:07.626Z,50.90
2023-03-21T22:40:36.675Z,58.73
2023-03-21T22:43:05.653Z,57.10
2023-03-21T22:45:34.975Z,53.93
2023-03-21T22:48:03.973Z,55.20
2023-03-21T22:50:32.822Z,54.47
2023-03-21T22:53:03.022Z,57.10
2023-03-21T22:55:31.825Z,56.73
2023-03-21T22:58:00.600Z,58.30
2023-03-21T23:00:29.390Z,58.43
2023-03-21T23:02:59.589Z,66.70
2023-03-21T23:05:28.685Z,65.73
2023-03-21T23:07:57.462Z,57.60
2023-03-21T23:10:27.659Z,59.20
2023-03-21T23:12:56.419Z,57.40
2023-03-21T23:15:25.244Z,55.23
2023-03-21T23:17:54.050Z,55.23
2023-03-21T23:20:23.139Z,56.37
2023-03-21T23:22:51.912Z,54.20
2023-03-21T23:25:21.002Z,56.00
2023-03-21T23:27:51.282Z,55.63
2023-03-21T23:30:20.614Z,51.90
2023-03-21T23:32:49.357Z,54.43
2023-03-21T23:35:18.606Z,59.03
2023-03-21T23:37:50.141Z,53.63
2023-03-21T23:40:19.108Z,52.37
2023-03-21T23:42:47.918Z,53.47
2023-03-21T23:45:18.643Z,58.57
2023-03-21T23:47:47.497Z,58.17
2023-03-21T23:50:16.476Z,60.77
2023-03-21T23:52:45.320Z,53.77
2023-03-21T23:55:14.094Z,56.47
2023-03-21T23:57:43.939Z,60.83
